Погода Урахина неделю

Республика Дагестан, Россия

21 - 27 мая
  • 21мая
    Сегодня
    +10°
    +20°
    Практически безоблачно
    ВремяПогодаТемператураВлажностьДавлениеВетер, м/сВероятность осадков
    00:00Ясно и безоблачно+10°C83 %718 мм1.2 м/с2 %
    03:00Ясно и безоблачно+8°C82 %718 мм1.2 м/с2 %
    06:00Ясно и безоблачно+12°C72 %719 мм1.1 м/с2 %
    09:00Ясно и безоблачно+19°C49 %721 мм1.7 м/с2 %
    12:00Практически безоблачно+19°C50 %721 мм3.1 м/с5 %
    15:00Практически безоблачно+19°C50 %721 мм2.8 м/с11 %
    18:00Ясно и безоблачно+16°C61 %720 мм1.9 м/с5 %
    21:00Ясно и безоблачно+12°C72 %720 мм1.2 м/с2 %
  • 22мая
    Среда
    +10°
    +20°
    Облачно с прояснениями
    ВремяПогодаТемператураВлажностьДавлениеВетер, м/сВероятность осадков
    00:00Ясно и безоблачно+11°C74 %719 мм1.6 м/с2 %
    03:00Практически безоблачно+11°C69 %719 мм1.7 м/с2 %
    06:00Небольшая облачность+14°C66 %719 мм1.1 м/с2 %
    09:00Облачно с прояснениями+18°C58 %720 мм3.5 м/с2 %
    12:00Облачно с прояснениями+19°C58 %719 мм5.0 м/с8 %
    15:00Облачно с прояснениями+18°C60 %719 мм4.9 м/с11 %
    18:00Практически безоблачно+15°C69 %718 мм3.1 м/с5 %
    21:00Практически безоблачно+12°C83 %718 мм1.5 м/с2 %
  • 23мая
    Четверг
    +12°
    +21°
    Облачно с прояснениями
    ВремяПогодаТемператураВлажностьДавлениеВетер, м/сВероятность осадков
    00:00Ясно и безоблачно+12°C80 %716 мм1.6 м/с2 %
    03:00Ясно и безоблачно+12°C77 %716 мм1.1 м/с2 %
    06:00Ясно и безоблачно+14°C76 %717 мм1.5 м/с2 %
    09:00Ясно и безоблачно+19°C62 %717 мм3.5 м/с2 %
    12:00Практически безоблачно+21°C58 %717 мм4.3 м/с14 %
    15:00Облачно с прояснениями+19°C68 %717 мм3.6 м/с24 %
    18:00Облачно с прояснениями+16°C78 %716 мм2.2 м/с15 %
    21:00Практически безоблачно+12°C90 %716 мм1.1 м/с6 %
  • 24мая
    Пятница
    +10°
    +19°
    Небольшая облачность и лёгкий дождик
    ВремяПогодаТемператураВлажностьДавлениеВетер, м/сВероятность осадков
    00:00Практически безоблачно+13°C85 %716 мм1.3 м/с8 %
    03:00Практически безоблачно+12°C81 %716 мм1.0 м/с7 %
    06:00Ясно и безоблачно+15°C74 %717 мм0.5 м/с4 %
    09:00Ясно и безоблачно+18°C69 %718 мм2.7 м/с9 %
    12:00Небольшая облачность+20°C63 %719 мм3.6 м/с49 %
    15:00Небольшая облачность и лёгкий дождик+19°C61 %719 мм3.4 м/с52 %
    18:00Облачно с прояснениями+16°C77 %720 мм1.7 м/с49 %
    21:00Пасмурно, небольшой дождь+13°C94 %721 мм0.7 м/с57 %
  • 25мая
    Суббота
    +12°
    +17°
    Пасмурно, ливень
    ВремяПогодаТемператураВлажностьДавлениеВетер, м/сВероятность осадков
    00:00Пасмурно, небольшой дождь+12°C99 %721 мм1.0 м/с70 %
    03:00Пасмурно, дождь+11°C98 %721 мм1.0 м/с65 %
    06:00Пасмурно, дождь+12°C95 %722 мм2.2 м/с55 %
    09:00Пасмурно, дождь+13°C93 %724 мм2.9 м/с71 %
    12:00Пасмурно, дождь+14°C93 %724 мм3.1 м/с84 %
    15:00Пасмурно, ливень+14°C88 %724 мм3.4 м/с84 %
    18:00Пасмурно, небольшой дождь+12°C85 %724 мм2.7 м/с66 %
    21:00Облачно с прояснениями+10°C90 %724 мм2.7 м/с31 %
Мы используем cookies
Соглашаюсь